sensor_id;sensor_type;location;lat;lon;timestamp;pressure;altitude;pressure_sealevel;temperature;humidity
61537;BME280;48695;53.480;-6.300;2022-10-16T00:01:05;99256.91;;;9.72;71.68
61537;BME280;48695;53.480;-6.300;2022-10-16T00:03:31;99249.16;;;9.71;71.92
61537;BME280;48695;53.480;-6.300;2022-10-16T00:05:59;99276.44;;;9.84;71.73
61537;BME280;48695;53.480;-6.300;2022-10-16T00:08:25;99248.44;;;9.67;71.69
61537;BME280;48695;53.480;-6.300;2022-10-16T00:10:50;99278.22;;;9.82;71.53
61537;BME280;48695;53.480;-6.300;2022-10-16T00:13:16;99254.66;;;9.65;71.63
61537;BME280;48695;53.480;-6.300;2022-10-16T00:15:43;99294.13;;;9.76;71.41
61537;BME280;48695;53.480;-6.300;2022-10-16T00:18:09;99283.72;;;9.76;71.61
61537;BME280;48695;53.480;-6.300;2022-10-16T00:20:35;99296.88;;;9.73;71.84
61537;BME280;48695;53.480;-6.300;2022-10-16T00:23:03;99282.41;;;9.66;71.38
61537;BME280;48695;53.480;-6.300;2022-10-16T00:25:28;99294.53;;;9.67;71.85
61537;BME280;48695;53.480;-6.300;2022-10-16T00:27:54;99301.56;;;9.65;71.80
61537;BME280;48695;53.480;-6.300;2022-10-16T00:30:19;99317.06;;;9.68;71.69
61537;BME280;48695;53.480;-6.300;2022-10-16T00:32:45;99316.28;;;9.66;71.68
61537;BME280;48695;53.480;-6.300;2022-10-16T00:35:10;99301.19;;;9.52;71.29
61537;BME280;48695;53.480;-6.300;2022-10-16T00:37:36;99322.41;;;9.65;71.65
61537;BME280;48695;53.480;-6.300;2022-10-16T00:40:01;99332.84;;;9.65;71.67
61537;BME280;48695;53.480;-6.300;2022-10-16T00:42:27;99307.59;;;9.45;71.15
61537;BME280;48695;53.480;-6.300;2022-10-16T00:44:54;99320.94;;;9.57;71.81
61537;BME280;48695;53.480;-6.300;2022-10-16T00:47:29;99332.28;;;9.56;71.66
61537;BME280;48695;53.480;-6.300;2022-10-16T00:52:28;99351.19;;;9.61;71.88
61537;BME280;48695;53.480;-6.300;2022-10-16T00:54:54;99338.25;;;9.60;71.24
61537;BME280;48695;53.480;-6.300;2022-10-16T00:57:19;99338.16;;;9.61;71.17
61537;BME280;48695;53.480;-6.300;2022-10-16T00:59:45;99346.00;;;9.61;70.97
61537;BME280;48695;53.480;-6.300;2022-10-16T01:02:13;99348.59;;;9.61;71.32
61537;BME280;48695;53.480;-6.300;2022-10-16T01:04:45;99355.56;;;9.61;71.29
61537;BME280;48695;53.480;-6.300;2022-10-16T01:10:35;99352.13;;;9.60;70.89
61537;BME280;48695;53.480;-6.300;2022-10-16T01:13:18;99324.31;;;9.39;71.10
61537;BME280;48695;53.480;-6.300;2022-10-16T01:15:57;99360.00;;;9.59;70.95
61537;BME280;48695;53.480;-6.300;2022-10-16T01:18:32;99341.38;;;9.46;71.29
61537;BME280;48695;53.480;-6.300;2022-10-16T01:21:05;99340.72;;;9.41;70.83
61537;BME280;48695;53.480;-6.300;2022-10-16T01:23:38;99369.69;;;9.55;71.23
61537;BME280;48695;53.480;-6.300;2022-10-16T01:29:07;99383.63;;;9.54;70.90
61537;BME280;48695;53.480;-6.300;2022-10-16T01:31:36;99384.72;;;9.49;70.80
61537;BME280;48695;53.480;-6.300;2022-10-16T01:34:35;99394.06;;;9.54;70.88
61537;BME280;48695;53.480;-6.300;2022-10-16T01:37:06;99365.09;;;9.40;70.72
61537;BME280;48695;53.480;-6.300;2022-10-16T01:39:35;99378.44;;;9.54;70.58
61537;BME280;48695;53.480;-6.300;2022-10-16T01:42:12;99381.13;;;9.51;70.54
61537;BME280;48695;53.480;-6.300;2022-10-16T01:44:41;99399.28;;;9.54;70.59
61537;BME280;48695;53.480;-6.300;2022-10-16T01:47:09;99320.97;;;9.14;70.31
61537;BME280;48695;53.480;-6.300;2022-10-16T01:49:35;99400.97;;;9.55;70.63
61537;BME280;48695;53.480;-6.300;2022-10-16T01:52:05;99412.31;;;9.54;70.14
61537;BME280;48695;53.480;-6.300;2022-10-16T01:54:35;99409.94;;;9.48;70.33
61537;BME280;48695;53.480;-6.300;2022-10-16T01:57:03;99422.78;;;9.53;70.51
61537;BME280;48695;53.480;-6.300;2022-10-16T01:59:32;99424.59;;;9.51;70.02
61537;BME280;48695;53.480;-6.300;2022-10-16T02:02:07;99435.88;;;9.51;70.10
61537;BME280;48695;53.480;-6.300;2022-10-16T02:04:38;99419.06;;;9.36;70.27
61537;BME280;48695;53.480;-6.300;2022-10-16T02:07:04;99405.31;;;9.33;70.16
61537;BME280;48695;53.480;-6.300;2022-10-16T02:09:33;99443.81;;;9.48;70.38
61537;BME280;48695;53.480;-6.300;2022-10-16T02:12:03;99442.06;;;9.49;69.90
61537;BME280;48695;53.480;-6.300;2022-10-16T02:14:32;99447.38;;;9.46;70.37
61537;BME280;48695;53.480;-6.300;2022-10-16T02:16:57;99449.03;;;9.48;70.36
61537;BME280;48695;53.480;-6.300;2022-10-16T02:19:23;99417.69;;;9.28;69.90
61537;BME280;48695;53.480;-6.300;2022-10-16T02:21:58;99447.47;;;9.43;69.94
61537;BME280;48695;53.480;-6.300;2022-10-16T02:27:26;99465.69;;;9.44;69.95
61537;BME280;48695;53.480;-6.300;2022-10-16T02:29:56;99466.63;;;9.42;70.25
61537;BME280;48695;53.480;-6.300;2022-10-16T02:32:29;99453.28;;;9.27;70.05
61537;BME280;48695;53.480;-6.300;2022-10-16T02:34:56;99472.81;;;9.39;69.84
61537;BME280;48695;53.480;-6.300;2022-10-16T02:37:23;99460.47;;;9.21;70.27
61537;BME280;48695;53.480;-6.300;2022-10-16T02:39:49;99501.66;;;9.34;70.07
61537;BME280;48695;53.480;-6.300;2022-10-16T02:42:15;99494.00;;;9.30;70.17
61537;BME280;48695;53.480;-6.300;2022-10-16T02:44:42;99476.91;;;9.23;70.12
61537;BME280;48695;53.480;-6.300;2022-10-16T02:47:07;99488.28;;;9.20;70.11
61537;BME280;48695;53.480;-6.300;2022-10-16T02:49:33;99514.84;;;9.30;70.27
61537;BME280;48695;53.480;-6.300;2022-10-16T02:51:58;99522.66;;;9.30;70.16
61537;BME280;48695;53.480;-6.300;2022-10-16T02:54:24;99512.41;;;9.25;70.50
61537;BME280;48695;53.480;-6.300;2022-10-16T02:56:49;99523.56;;;9.29;69.84
61537;BME280;48695;53.480;-6.300;2022-10-16T02:59:15;99528.88;;;9.26;69.87
61537;BME280;48695;53.480;-6.300;2022-10-16T03:01:40;99529.78;;;9.25;70.15
61537;BME280;48695;53.480;-6.300;2022-10-16T03:04:06;99504.81;;;9.19;69.87
61537;BME280;48695;53.480;-6.300;2022-10-16T03:06:31;99521.97;;;9.25;69.83
61537;BME280;48695;53.480;-6.300;2022-10-16T03:08:56;99526.56;;;9.18;70.10
61537;BME280;48695;53.480;-6.300;2022-10-16T03:11:22;99527.63;;;9.13;69.92
61537;BME280;48695;53.480;-6.300;2022-10-16T03:13:47;99536.31;;;9.12;69.87
61537;BME280;48695;53.480;-6.300;2022-10-16T03:16:13;99539.75;;;9.14;69.64
61537;BME280;48695;53.480;-6.300;2022-10-16T03:18:38;99561.22;;;9.20;69.96
61537;BME280;48695;53.480;-6.300;2022-10-16T03:21:03;99556.97;;;9.18;69.59
61537;BME280;48695;53.480;-6.300;2022-10-16T03:23:29;99567.41;;;9.18;70.00
61537;BME280;48695;53.480;-6.300;2022-10-16T03:25:55;99551.91;;;9.13;69.62
61537;BME280;48695;53.480;-6.300;2022-10-16T03:28:20;99559.03;;;9.08;69.79
61537;BME280;48695;53.480;-6.300;2022-10-16T03:30:45;99581.41;;;9.14;69.70
61537;BME280;48695;53.480;-6.300;2022-10-16T03:33:11;99569.41;;;9.09;69.34
61537;BME280;48695;53.480;-6.300;2022-10-16T03:35:37;99585.81;;;9.12;69.38
61537;BME280;48695;53.480;-6.300;2022-10-16T03:38:02;99573.97;;;9.03;69.61
61537;BME280;48695;53.480;-6.300;2022-10-16T03:40:27;99582.47;;;9.08;69.56
61537;BME280;48695;53.480;-6.300;2022-10-16T03:42:53;99568.22;;;8.93;69.21
61537;BME280;48695;53.480;-6.300;2022-10-16T03:45:23;99585.97;;;9.07;69.55
61537;BME280;48695;53.480;-6.300;2022-10-16T03:47:48;99595.53;;;9.06;69.68
61537;BME280;48695;53.480;-6.300;2022-10-16T03:50:14;99607.00;;;9.01;69.57
61537;BME280;48695;53.480;-6.300;2022-10-16T03:52:39;99611.50;;;8.97;69.33
61537;BME280;48695;53.480;-6.300;2022-10-16T03:55:05;99628.69;;;9.01;69.26
61537;BME280;48695;53.480;-6.300;2022-10-16T03:57:31;99633.06;;;9.01;69.44
61537;BME280;48695;53.480;-6.300;2022-10-16T03:59:56;99622.94;;;8.92;68.91
61537;BME280;48695;53.480;-6.300;2022-10-16T04:02:21;99642.06;;;8.91;69.01
61537;BME280;48695;53.480;-6.300;2022-10-16T04:04:47;99661.75;;;8.99;69.36
61537;BME280;48695;53.480;-6.300;2022-10-16T04:07:12;99660.16;;;8.95;69.21
61537;BME280;48695;53.480;-6.300;2022-10-16T04:09:37;99674.00;;;8.97;69.24
61537;BME280;48695;53.480;-6.300;2022-10-16T04:12:03;99656.09;;;8.87;69.10
61537;BME280;48695;53.480;-6.300;2022-10-16T04:14:28;99692.25;;;8.96;69.03
61537;BME280;48695;53.480;-6.300;2022-10-16T04:16:54;99693.09;;;8.96;68.80
61537;BME280;48695;53.480;-6.300;2022-10-16T04:19:19;99691.59;;;8.89;68.91
61537;BME280;48695;53.480;-6.300;2022-10-16T04:21:44;99706.94;;;8.98;68.88
61537;BME280;48695;53.480;-6.300;2022-10-16T04:24:10;99709.75;;;8.91;69.15
61537;BME280;48695;53.480;-6.300;2022-10-16T04:26:36;99719.97;;;8.97;68.75
61537;BME280;48695;53.480;-6.300;2022-10-16T04:29:02;99716.59;;;8.95;68.85
61537;BME280;48695;53.480;-6.300;2022-10-16T04:31:27;99724.34;;;8.96;68.99
61537;BME280;48695;53.480;-6.300;2022-10-16T04:33:53;99708.31;;;8.82;68.65
61537;BME280;48695;53.480;-6.300;2022-10-16T04:36:18;99731.44;;;8.91;69.13
61537;BME280;48695;53.480;-6.300;2022-10-16T04:38:43;99737.56;;;8.90;69.16
61537;BME280;48695;53.480;-6.300;2022-10-16T04:41:09;99745.28;;;8.93;68.65
61537;BME280;48695;53.480;-6.300;2022-10-16T04:43:34;99752.56;;;8.82;69.06
61537;BME280;48695;53.480;-6.300;2022-10-16T04:46:00;99757.81;;;8.80;68.91
61537;BME280;48695;53.480;-6.300;2022-10-16T04:48:26;99769.91;;;8.83;68.82
61537;BME280;48695;53.480;-6.300;2022-10-16T04:50:52;99789.53;;;8.93;68.59
61537;BME280;48695;53.480;-6.300;2022-10-16T04:53:17;99793.94;;;8.91;68.67
61537;BME280;48695;53.480;-6.300;2022-10-16T04:55:43;99798.28;;;8.91;68.35
61537;BME280;48695;53.480;-6.300;2022-10-16T04:58:08;99799.19;;;8.90;68.91
61537;BME280;48695;53.480;-6.300;2022-10-16T05:00:34;99807.09;;;8.87;68.84
61537;BME280;48695;53.480;-6.300;2022-10-16T05:03:00;99755.00;;;8.58;68.83
61537;BME280;48695;53.480;-6.300;2022-10-16T05:05:26;99805.50;;;8.81;68.58
61537;BME280;48695;53.480;-6.300;2022-10-16T05:07:52;99816.66;;;8.86;68.61
61537;BME280;48695;53.480;-6.300;2022-10-16T05:10:17;99800.31;;;8.81;68.66
61537;BME280;48695;53.480;-6.300;2022-10-16T05:12:43;99792.88;;;8.69;68.15
61537;BME280;48695;53.480;-6.300;2022-10-16T05:15:09;99785.00;;;8.70;68.84
61537;BME280;48695;53.480;-6.300;2022-10-16T05:17:34;99791.00;;;8.74;68.66
61537;BME280;48695;53.480;-6.300;2022-10-16T05:20:00;99803.88;;;8.78;68.45
61537;BME280;48695;53.480;-6.300;2022-10-16T05:22:25;99789.44;;;8.67;68.64
61537;BME280;48695;53.480;-6.300;2022-10-16T05:24:50;99798.75;;;8.75;68.34
61537;BME280;48695;53.480;-6.300;2022-10-16T05:27:16;99802.25;;;8.74;68.37
61537;BME280;48695;53.480;-6.300;2022-10-16T05:29:48;99792.06;;;8.67;68.67
61537;BME280;48695;53.480;-6.300;2022-10-16T05:32:14;99799.84;;;8.68;68.72
61537;BME280;48695;53.480;-6.300;2022-10-16T05:34:40;99803.28;;;8.69;68.50
61537;BME280;48695;53.480;-6.300;2022-10-16T05:37:05;99789.63;;;8.61;68.62
61537;BME280;48695;53.480;-6.300;2022-10-16T05:39:31;99804.28;;;8.65;68.25
61537;BME280;48695;53.480;-6.300;2022-10-16T05:41:56;99812.06;;;8.65;68.42
61537;BME280;48695;53.480;-6.300;2022-10-16T05:44:22;99776.34;;;8.40;68.51
61537;BME280;48695;53.480;-6.300;2022-10-16T05:46:47;99815.75;;;8.57;68.87
61537;BME280;48695;53.480;-6.300;2022-10-16T05:49:12;99826.19;;;8.57;68.84
61537;BME280;48695;53.480;-6.300;2022-10-16T05:51:38;99806.53;;;8.46;68.69
61537;BME280;48695;53.480;-6.300;2022-10-16T05:54:03;99831.44;;;8.54;68.74
61537;BME280;48695;53.480;-6.300;2022-10-16T05:56:29;99831.53;;;8.51;68.64
61537;BME280;48695;53.480;-6.300;2022-10-16T05:58:54;99831.53;;;8.51;68.54
61537;BME280;48695;53.480;-6.300;2022-10-16T06:01:20;99841.00;;;8.54;68.91
61537;BME280;48695;53.480;-6.300;2022-10-16T06:03:51;99837.69;;;8.49;69.11
61537;BME280;48695;53.480;-6.300;2022-10-16T06:06:19;99827.53;;;8.40;68.96
61537;BME280;48695;53.480;-6.300;2022-10-16T06:08:46;99846.47;;;8.45;69.51
61537;BME280;48695;53.480;-6.300;2022-10-16T06:11:16;99845.69;;;8.41;69.16
61537;BME280;48695;53.480;-6.300;2022-10-16T06:13:42;99862.84;;;8.48;68.98
61537;BME280;48695;53.480;-6.300;2022-10-16T06:16:09;99829.44;;;8.33;68.89
61537;BME280;48695;53.480;-6.300;2022-10-16T06:18:35;99847.41;;;8.42;68.56
61537;BME280;48695;53.480;-6.300;2022-10-16T06:21:08;99776.66;;;7.97;68.86
61537;BME280;48695;53.480;-6.300;2022-10-16T06:23:34;99855.19;;;8.44;69.02
61537;BME280;48695;53.480;-6.300;2022-10-16T06:26:07;99852.69;;;8.39;69.01
61537;BME280;48695;53.480;-6.300;2022-10-16T06:28:33;99854.19;;;8.48;68.69
61537;BME280;48695;53.480;-6.300;2022-10-16T06:31:00;99857.81;;;8.42;69.25
61537;BME280;48695;53.480;-6.300;2022-10-16T06:33:25;99858.69;;;8.41;69.02
61537;BME280;48695;53.480;-6.300;2022-10-16T06:35:51;99877.69;;;8.45;68.79
61537;BME280;48695;53.480;-6.300;2022-10-16T06:38:16;99876.09;;;8.39;69.47
61537;BME280;48695;53.480;-6.300;2022-10-16T06:40:42;99857.97;;;8.36;68.78
61537;BME280;48695;53.480;-6.300;2022-10-16T06:43:07;99890.56;;;8.49;68.89
61537;BME280;48695;53.480;-6.300;2022-10-16T06:45:32;99878.66;;;8.41;69.34
61537;BME280;48695;53.480;-6.300;2022-10-16T06:47:58;99885.31;;;8.52;69.10
61537;BME280;48695;53.480;-6.300;2022-10-16T06:50:23;99888.78;;;8.51;69.38
61537;BME280;48695;53.480;-6.300;2022-10-16T06:52:49;99874.34;;;8.40;69.31
61537;BME280;48695;53.480;-6.300;2022-10-16T06:55:14;99893.97;;;8.51;69.32
61537;BME280;48695;53.480;-6.300;2022-10-16T06:57:40;99917.31;;;8.54;69.43
61537;BME280;48695;53.480;-6.300;2022-10-16T07:00:06;99914.91;;;8.48;68.98
61537;BME280;48695;53.480;-6.300;2022-10-16T07:02:31;99927.78;;;8.53;68.97
61537;BME280;48695;53.480;-6.300;2022-10-16T07:04:57;99930.34;;;8.54;69.65
61537;BME280;48695;53.480;-6.300;2022-10-16T07:07:22;99919.38;;;8.43;69.10
61537;BME280;48695;53.480;-6.300;2022-10-16T07:09:49;99956.34;;;8.54;69.60
61537;BME280;48695;53.480;-6.300;2022-10-16T07:12:15;99953.81;;;8.53;69.61
61537;BME280;48695;53.480;-6.300;2022-10-16T07:14:40;99942.78;;;8.43;69.69
61537;BME280;48695;53.480;-6.300;2022-10-16T07:17:06;99949.69;;;8.44;69.52
61537;BME280;48695;53.480;-6.300;2022-10-16T07:19:31;99948.72;;;8.48;69.37
61537;BME280;48695;53.480;-6.300;2022-10-16T07:21:56;99971.97;;;8.54;69.93
61537;BME280;48695;53.480;-6.300;2022-10-16T07:24:22;99993.53;;;8.60;69.48
61537;BME280;48695;53.480;-6.300;2022-10-16T07:26:47;99997.03;;;8.58;69.58
61537;BME280;48695;53.480;-6.300;2022-10-16T07:29:18;99985.06;;;8.51;69.54
61537;BME280;48695;53.480;-6.300;2022-10-16T07:31:44;100027.19;;;8.66;69.37
61537;BME280;48695;53.480;-6.300;2022-10-16T07:34:11;100038.38;;;8.69;69.96
61537;BME280;48695;53.480;-6.300;2022-10-16T07:36:37;100029.16;;;8.56;69.70
61537;BME280;48695;53.480;-6.300;2022-10-16T07:39:03;100056.50;;;8.74;70.04
61537;BME280;48695;53.480;-6.300;2022-10-16T07:41:28;100034.25;;;8.61;70.27
61537;BME280;48695;53.480;-6.300;2022-10-16T07:43:54;100032.41;;;8.66;70.03
61537;BME280;48695;53.480;-6.300;2022-10-16T07:46:21;100063.19;;;8.84;70.41
61537;BME280;48695;53.480;-6.300;2022-10-16T07:48:47;100050.34;;;8.76;70.29
61537;BME280;48695;53.480;-6.300;2022-10-16T07:51:19;100075.88;;;8.96;70.40
61537;BME280;48695;53.480;-6.300;2022-10-16T07:53:44;100076.72;;;8.97;70.77
61537;BME280;48695;53.480;-6.300;2022-10-16T07:56:11;100078.34;;;9.02;70.61
61537;BME280;48695;53.480;-6.300;2022-10-16T07:58:37;100086.88;;;9.07;70.54
61537;BME280;48695;53.480;-6.300;2022-10-16T08:01:05;100091.91;;;9.14;70.84
61537;BME280;48695;53.480;-6.300;2022-10-16T08:03:31;100103.97;;;9.18;70.78
61537;BME280;48695;53.480;-6.300;2022-10-16T08:05:57;100111.69;;;9.21;70.25
61537;BME280;48695;53.480;-6.300;2022-10-16T08:08:23;100130.59;;;9.27;70.07
61537;BME280;48695;53.480;-6.300;2022-10-16T08:10:49;100127.19;;;9.25;69.51
61537;BME280;48695;53.480;-6.300;2022-10-16T08:13:14;100122.09;;;9.21;69.42
61537;BME280;48695;53.480;-6.300;2022-10-16T08:15:41;100123.63;;;9.29;69.72
61537;BME280;48695;53.480;-6.300;2022-10-16T08:18:07;100140.63;;;9.43;69.70
61537;BME280;48695;53.480;-6.300;2022-10-16T08:20:33;100141.34;;;9.48;69.87
61537;BME280;48695;53.480;-6.300;2022-10-16T08:22:59;100121.63;;;9.39;70.02
61537;BME280;48695;53.480;-6.300;2022-10-16T08:25:24;100106.06;;;9.36;69.38
61537;BME280;48695;53.480;-6.300;2022-10-16T08:27:50;100121.34;;;9.50;69.79
61537;BME280;48695;53.480;-6.300;2022-10-16T08:30:17;100121.84;;;9.62;69.79
61537;BME280;48695;53.480;-6.300;2022-10-16T08:32:43;100107.16;;;9.60;69.97
61537;BME280;48695;53.480;-6.300;2022-10-16T08:35:13;100117.13;;;9.75;69.54
61537;BME280;48695;53.480;-6.300;2022-10-16T08:37:39;100107.56;;;9.76;69.39
61537;BME280;48695;53.480;-6.300;2022-10-16T08:40:06;100109.00;;;9.86;69.39
61537;BME280;48695;53.480;-6.300;2022-10-16T08:50:38;100127.34;;;10.12;69.80
61537;BME280;48695;53.480;-6.300;2022-10-16T08:53:04;100128.88;;;10.20;69.55
61537;BME280;48695;53.480;-6.300;2022-10-16T08:55:52;100132.94;;;10.30;69.36
61537;BME280;48695;53.480;-6.300;2022-10-16T08:58:25;100124.16;;;10.32;69.25
61537;BME280;48695;53.480;-6.300;2022-10-16T09:00:57;100140.19;;;10.48;69.44
61537;BME280;48695;53.480;-6.300;2022-10-16T09:09:56;100131.38;;;10.79;68.91
61537;BME280;48695;53.480;-6.300;2022-10-16T09:12:26;100132.94;;;10.84;68.82
61537;BME280;48695;53.480;-6.300;2022-10-16T09:15:10;100142.16;;;10.96;69.25
61537;BME280;48695;53.480;-6.300;2022-10-16T09:21:13;100153.00;;;11.10;68.63
61537;BME280;48695;53.480;-6.300;2022-10-16T09:23:40;100166.56;;;11.20;68.77
61537;BME280;48695;53.480;-6.300;2022-10-16T09:26:10;100168.16;;;11.26;68.66
61537;BME280;48695;53.480;-6.300;2022-10-16T09:28:36;100163.72;;;11.28;68.49
61537;BME280;48695;53.480;-6.300;2022-10-16T09:31:02;100154.22;;;11.25;68.32
61537;BME280;48695;53.480;-6.300;2022-10-16T09:33:34;100172.81;;;11.42;68.44
61537;BME280;48695;53.480;-6.300;2022-10-16T09:36:03;100177.94;;;11.46;68.42
61537;BME280;48695;53.480;-6.300;2022-10-16T09:38:32;100155.50;;;11.38;68.01
61537;BME280;48695;53.480;-6.300;2022-10-16T09:41:00;100178.41;;;11.57;68.08
61537;BME280;48695;53.480;-6.300;2022-10-16T09:46:07;100189.44;;;11.65;67.79
61537;BME280;48695;53.480;-6.300;2022-10-16T09:48:39;100184.88;;;11.72;67.82
61537;BME280;48695;53.480;-6.300;2022-10-16T09:51:28;100187.34;;;11.75;67.61
61537;BME280;48695;53.480;-6.300;2022-10-16T09:53:57;100188.88;;;11.82;66.95
61537;BME280;48695;53.480;-6.300;2022-10-16T09:56:31;100185.91;;;11.91;67.55
61537;BME280;48695;53.480;-6.300;2022-10-16T09:59:45;100176.31;;;11.91;67.10
61537;BME280;48695;53.480;-6.300;2022-10-16T10:01:53;100177.03;;;11.95;67.53
61537;BME280;48695;53.480;-6.300;2022-10-16T10:04:22;100178.47;;;12.04;67.21
61537;BME280;48695;53.480;-6.300;2022-10-16T10:06:53;100166.25;;;12.04;67.22
61537;BME280;48695;53.480;-6.300;2022-10-16T10:09:23;100185.75;;;12.19;67.26
61537;BME280;48695;53.480;-6.300;2022-10-16T10:11:56;100188.97;;;12.27;67.42
61537;BME280;48695;53.480;-6.300;2022-10-16T10:14:57;100192.88;;;12.39;67.73
61537;BME280;48695;53.480;-6.300;2022-10-16T10:17:27;100189.16;;;12.44;66.35
61537;BME280;48695;53.480;-6.300;2022-10-16T10:19:59;100195.81;;;12.53;66.43
61537;BME280;48695;53.480;-6.300;2022-10-16T10:30:40;100181.78;;;12.98;66.22
61537;BME280;48695;53.480;-6.300;2022-10-16T10:46:16;100149.22;;;13.26;65.03
61537;BME280;48695;53.480;-6.300;2022-10-16T10:57:03;100181.06;;;13.57;65.50
61537;BME280;48695;53.480;-6.300;2022-10-16T11:05:24;100199.41;;;13.77;65.56
61537;BME280;48695;53.480;-6.300;2022-10-16T11:08:29;100209.50;;;13.87;65.84
61537;BME280;48695;53.480;-6.300;2022-10-16T11:11:18;100187.28;;;13.75;65.45
61537;BME280;48695;53.480;-6.300;2022-10-16T11:13:54;100218.97;;;13.91;64.88
61537;BME280;48695;53.480;-6.300;2022-10-16T11:16:28;100211.22;;;13.88;65.38
61537;BME280;48695;53.480;-6.300;2022-10-16T11:19:22;100200.88;;;13.85;65.46
61537;BME280;48695;53.480;-6.300;2022-10-16T11:21:49;100217.75;;;13.98;64.79
61537;BME280;48695;53.480;-6.300;2022-10-16T11:24:22;100203.00;;;13.95;65.11
61537;BME280;48695;53.480;-6.300;2022-10-16T11:26:49;100202.00;;;13.98;64.69
61537;BME280;48695;53.480;-6.300;2022-10-16T11:29:22;100208.84;;;14.02;64.77
61537;BME280;48695;53.480;-6.300;2022-10-16T11:31:57;100211.34;;;14.05;64.79
61537;BME280;48695;53.480;-6.300;2022-10-16T11:34:38;100211.25;;;14.07;64.65
61537;BME280;48695;53.480;-6.300;2022-10-16T11:37:21;100199.19;;;14.02;64.29
61537;BME280;48695;53.480;-6.300;2022-10-16T11:39:50;100207.00;;;14.04;63.97
61537;BME280;48695;53.480;-6.300;2022-10-16T11:42:41;100212.81;;;14.11;64.76
61537;BME280;48695;53.480;-6.300;2022-10-16T11:45:34;100197.91;;;14.11;64.40
61537;BME280;48695;53.480;-6.300;2022-10-16T11:50:58;100181.44;;;14.08;63.54
61537;BME280;48695;53.480;-6.300;2022-10-16T11:53:42;100177.25;;;14.03;63.33
61537;BME280;48695;53.480;-6.300;2022-10-16T11:56:13;100187.53;;;14.08;63.16
61537;BME280;48695;53.480;-6.300;2022-10-16T11:58:58;100188.34;;;14.10;63.88
61537;BME280;48695;53.480;-6.300;2022-10-16T12:01:42;100187.81;;;14.02;62.73
61537;BME280;48695;53.480;-6.300;2022-10-16T12:04:33;100173.66;;;14.06;63.44
61537;BME280;48695;53.480;-6.300;2022-10-16T12:07:09;100185.19;;;14.02;61.71
61537;BME280;48695;53.480;-6.300;2022-10-16T12:09:38;100184.44;;;14.00;61.39
61537;BME280;48695;53.480;-6.300;2022-10-16T12:12:04;100169.81;;;13.94;62.26
61537;BME280;48695;53.480;-6.300;2022-10-16T12:17:34;100172.16;;;14.00;62.61
61537;BME280;48695;53.480;-6.300;2022-10-16T12:22:57;100160.84;;;13.98;62.30
61537;BME280;48695;53.480;-6.300;2022-10-16T12:25:37;100169.72;;;13.96;62.51
61537;BME280;48695;53.480;-6.300;2022-10-16T12:30:53;100160.16;;;13.95;61.58
61537;BME280;48695;53.480;-6.300;2022-10-16T12:33:22;100156.75;;;13.93;61.36
61537;BME280;48695;53.480;-6.300;2022-10-16T12:35:49;100153.34;;;13.91;62.69
61537;BME280;48695;53.480;-6.300;2022-10-16T12:38:24;100147.97;;;13.94;62.95
61537;BME280;48695;53.480;-6.300;2022-10-16T12:41:03;100153.06;;;13.97;63.08
61537;BME280;48695;53.480;-6.300;2022-10-16T12:43:39;100157.38;;;13.98;62.64
61537;BME280;48695;53.480;-6.300;2022-10-16T12:48:41;100168.53;;;14.03;62.60
61537;BME280;48695;53.480;-6.300;2022-10-16T12:59:19;100173.53;;;14.09;61.14
61537;BME280;48695;53.480;-6.300;2022-10-16T13:07:40;100150.78;;;14.08;61.08
61537;BME280;48695;53.480;-6.300;2022-10-16T13:13:10;100137.03;;;14.03;62.29
61537;BME280;48695;53.480;-6.300;2022-10-16T13:16:02;100137.09;;;14.01;62.53
61537;BME280;48695;53.480;-6.300;2022-10-16T13:24:15;100116.31;;;13.97;62.41
61537;BME280;48695;53.480;-6.300;2022-10-16T13:26:52;100096.72;;;13.85;62.04
61537;BME280;48695;53.480;-6.300;2022-10-16T13:29:21;100111.34;;;13.91;62.30
61537;BME280;48695;53.480;-6.300;2022-10-16T13:31:47;100084.88;;;13.76;62.38
61537;BME280;48695;53.480;-6.300;2022-10-16T13:34:16;100079.28;;;13.84;61.57
61537;BME280;48695;53.480;-6.300;2022-10-16T13:36:48;100088.66;;;13.90;60.74
61537;BME280;48695;53.480;-6.300;2022-10-16T13:39:20;100075.78;;;13.84;60.58
61537;BME280;48695;53.480;-6.300;2022-10-16T13:41:57;100081.13;;;13.82;60.13
61537;BME280;48695;53.480;-6.300;2022-10-16T13:44:22;100079.50;;;13.80;60.37
61537;BME280;48695;53.480;-6.300;2022-10-16T13:46:58;100076.03;;;13.79;61.67
61537;BME280;48695;53.480;-6.300;2022-10-16T13:49:24;100078.84;;;13.74;60.51
61537;BME280;48695;53.480;-6.300;2022-10-16T13:51:57;100059.34;;;13.61;61.44
61537;BME280;48695;53.480;-6.300;2022-10-16T13:54:24;100076.44;;;13.70;61.83
61537;BME280;48695;53.480;-6.300;2022-10-16T13:56:50;100068.63;;;13.68;61.50
61537;BME280;48695;53.480;-6.300;2022-10-16T13:59:27;100073.75;;;13.71;61.57
61537;BME280;48695;53.480;-6.300;2022-10-16T14:01:58;100072.16;;;13.67;61.55
61537;BME280;48695;53.480;-6.300;2022-10-16T14:04:32;100058.13;;;13.68;61.83
61537;BME280;48695;53.480;-6.300;2022-10-16T14:06:58;100036.94;;;13.54;61.93
61537;BME280;48695;53.480;-6.300;2022-10-16T14:09:26;100036.78;;;13.57;61.93
61537;BME280;48695;53.480;-6.300;2022-10-16T14:11:55;100020.84;;;13.62;62.30
61537;BME280;48695;53.480;-6.300;2022-10-16T14:14:22;99995.59;;;13.59;62.67
61537;BME280;48695;53.480;-6.300;2022-10-16T14:16:48;99996.50;;;13.58;63.31
61537;BME280;48695;53.480;-6.300;2022-10-16T14:19:22;100005.09;;;13.62;62.92
61537;BME280;48695;53.480;-6.300;2022-10-16T14:21:52;99992.06;;;13.60;63.24
61537;BME280;48695;53.480;-6.300;2022-10-16T14:26:55;99994.03;;;13.55;63.64
61537;BME280;48695;53.480;-6.300;2022-10-16T14:29:22;99999.41;;;13.52;63.61
61537;BME280;48695;53.480;-6.300;2022-10-16T14:32:05;99982.91;;;13.50;63.08
61537;BME280;48695;53.480;-6.300;2022-10-16T14:34:36;99987.31;;;13.49;63.43
61537;BME280;48695;53.480;-6.300;2022-10-16T14:37:27;99951.94;;;13.39;63.20
61537;BME280;48695;53.480;-6.300;2022-10-16T14:39:54;99974.19;;;13.49;63.35
61537;BME280;48695;53.480;-6.300;2022-10-16T14:42:21;99973.34;;;13.49;63.35
61537;BME280;48695;53.480;-6.300;2022-10-16T14:44:52;99967.25;;;13.48;63.65
61537;BME280;48695;53.480;-6.300;2022-10-16T14:47:20;99947.75;;;13.35;64.35
61537;BME280;48695;53.480;-6.300;2022-10-16T14:49:49;99967.38;;;13.45;63.38